Time;durP1;ratioP1;P1;durP2;ratioP2;P2;SDS_P1;SDS_P2;PMS_P1;PMS_P2;Temp;Humidity;BMP_temperature;BMP_pressure;BME280_temperature;BME280_humidity;BME280_pressure;Samples;Min_cycle;Max_cycle;Signal;HPM_P1;HPM_P2
2023/07/08 00:00:51;;;;;;;;;;;19.30;92.00;;;;;;2095736;28;19990;-79
2023/07/08 00:01:51;;;;;;;;;;;19.30;92.10;;;;;;2093601;28;19916;-77
2023/07/08 00:02:52;;;;;;;;;;;19.20;92.20;;;;;;2093686;28;20357;-77
2023/07/08 00:03:52;;;;;;;;;;;19.20;92.30;;;;;;2093593;28;19923;-78
2023/07/08 00:04:53;;;;;;;;;;;19.20;92.50;;;;;;2093656;28;19923;-78
2023/07/08 00:05:55;;;;;;;;;;;19.20;92.60;;;;;;2096158;28;19962;-79
2023/07/08 00:06:55;;;;;;;;;;;19.20;92.60;;;;;;2091277;28;19982;-78
2023/07/08 00:07:56;;;;;;;;;;;19.20;92.90;;;;;;2093271;28;20367;-79
2023/07/08 00:08:56;;;;;;;;;;;19.20;92.90;;;;;;2088452;28;19922;-78
2023/07/08 00:09:57;;;;;;;;;;;19.20;93.00;;;;;;2095488;28;19920;-79
2023/07/08 00:10:57;;;;;;;;;;;19.20;92.90;;;;;;2093199;28;19917;-79
2023/07/08 00:11:58;;;;;;;;;;;19.20;92.80;;;;;;2093781;28;20288;-79
2023/07/08 00:12:58;;;;;;;;;;;19.20;92.80;;;;;;2089481;28;19923;-78
2023/07/08 00:13:59;;;;;;;;;;;19.20;92.80;;;;;;2093800;28;20450;-77
2023/07/08 00:14:59;;;;;;;;;;;19.20;92.90;;;;;;2094579;28;19916;-77
2023/07/08 00:15:59;;;;;;;;;;;19.20;93.00;;;;;;2091363;28;19927;-79
2023/07/08 00:17:00;;;;;;;;;;;19.20;93.00;;;;;;2099204;28;19920;-78
2023/07/08 00:18:01;;;;;;;;;;;19.20;93.10;;;;;;2095065;28;19963;-78
2023/07/08 00:19:01;;;;;;;;;;;19.20;93.20;;;;;;2095067;28;19917;-77
2023/07/08 00:20:08;;;;;;;;;;;19.10;93.30;;;;;;2100115;28;20031;-78
2023/07/08 00:21:14;;;;;;;;;;;19.10;93.40;;;;;;2094971;28;19932;-78
2023/07/08 00:22:15;;;;;;;;;;;19.10;93.60;;;;;;2097028;28;19974;-78
2023/07/08 00:23:16;;;;;;;;;;;19.10;93.80;;;;;;2097758;28;19913;-78
2023/07/08 00:24:16;;;;;;;;;;;19.10;93.90;;;;;;2097532;28;19920;-79
2023/07/08 00:25:19;;;;;;;;;;;19.00;94.00;;;;;;2097698;28;20657;-78
2023/07/08 00:26:24;;;;;;;;;;;19.00;94.10;;;;;;2099006;28;20394;-79
2023/07/08 00:27:24;;;;;;;;;;;19.00;94.30;;;;;;2091570;28;20082;-79
2023/07/08 00:28:25;;;;;;;;;;;18.90;94.50;;;;;;2098646;28;19971;-78
2023/07/08 00:29:25;;;;;;;;;;;18.90;94.60;;;;;;2095761;28;19912;-78
2023/07/08 00:30:30;;;;;;;;;;;18.90;94.70;;;;;;2098581;28;19912;-79
2023/07/08 00:31:31;;;;;;;;;;;18.90;94.80;;;;;;2098814;28;19990;-78
2023/07/08 00:32:32;;;;;;;;;;;18.80;95.00;;;;;;2096507;28;19967;-79
2023/07/08 00:33:33;;;;;;;;;;;18.90;95.10;;;;;;2097176;28;20546;-79
2023/07/08 00:34:33;;;;;;;;;;;18.80;95.20;;;;;;2096761;28;19912;-79
2023/07/08 00:35:34;;;;;;;;;;;18.80;95.30;;;;;;2095927;28;19961;-78
2023/07/08 00:36:34;;;;;;;;;;;18.80;95.40;;;;;;2098060;28;19916;-79
2023/07/08 00:37:35;;;;;;;;;;;18.80;95.50;;;;;;2099352;28;20331;-79
2023/07/08 00:38:35;;;;;;;;;;;18.80;95.50;;;;;;2097359;28;19919;-78
2023/07/08 00:39:36;;;;;;;;;;;18.80;95.60;;;;;;2092828;28;19919;-79
2023/07/08 00:40:36;;;;;;;;;;;18.80;95.80;;;;;;2089253;28;19917;-79
2023/07/08 00:41:40;;;;;;;;;;;18.80;95.80;;;;;;2095216;28;19923;-80
2023/07/08 00:42:43;;;;;;;;;;;18.70;95.90;;;;;;2089573;28;19962;-79
2023/07/08 00:43:55;;;;;;;;;;;18.70;96.00;;;;;;2095337;28;19962;-79
2023/07/08 00:44:56;;;;;;;;;;;18.70;96.20;;;;;;2096554;28;19964;-80
2023/07/08 00:46:02;;;;;;;;;;;18.70;96.20;;;;;;2096195;28;19916;-79
2023/07/08 00:47:04;;;;;;;;;;;18.70;96.30;;;;;;2094791;28;19913;-80
2023/07/08 00:48:09;;;;;;;;;;;18.70;96.30;;;;;;2097037;28;20017;-79
2023/07/08 00:49:12;;;;;;;;;;;18.70;96.50;;;;;;2098285;28;19924;-79
2023/07/08 00:50:13;;;;;;;;;;;18.70;96.50;;;;;;2088827;28;19920;-80
2023/07/08 00:51:14;;;;;;;;;;;18.70;96.70;;;;;;2093339;28;19918;-79
2023/07/08 00:52:16;;;;;;;;;;;18.70;96.70;;;;;;2094152;28;20347;-79
2023/07/08 00:53:22;;;;;;;;;;;18.70;96.90;;;;;;2097099;28;19916;-80
2023/07/08 00:54:23;;;;;;;;;;;18.70;96.90;;;;;;2097347;28;19920;-80
2023/07/08 00:55:24;;;;;;;;;;;18.60;97.00;;;;;;2088096;28;19919;-80
2023/07/08 00:56:26;;;;;;;;;;;18.60;97.00;;;;;;2087663;28;19924;-79
2023/07/08 00:57:29;;;;;;;;;;;18.60;97.00;;;;;;2094326;28;20475;-80
2023/07/08 00:58:33;;;;;;;;;;;18.60;97.00;;;;;;2097914;28;19928;-79
2023/07/08 00:59:36;;;;;;;;;;;18.60;97.20;;;;;;2093333;28;19912;-79
2023/07/08 01:00:36;;;;;;;;;;;18.50;97.20;;;;;;2097224;28;19916;-79
2023/07/08 01:01:38;;;;;;;;;;;18.60;97.30;;;;;;2097525;28;19920;-78
2023/07/08 01:02:47;;;;;;;;;;;18.50;97.40;;;;;;2098450;28;19922;-79
2023/07/08 01:04:04;;;;;;;;;;;18.50;97.50;;;;;;2093561;28;19934;-79
2023/07/08 01:05:06;;;;;;;;;;;18.50;97.70;;;;;;2090151;28;19913;-78
2023/07/08 01:06:07;;;;;;;;;;;18.50;97.90;;;;;;2098615;28;19917;-79
2023/07/08 01:07:08;;;;;;;;;;;18.50;98.00;;;;;;2097779;28;19920;-77
2023/07/08 01:08:09;;;;;;;;;;;18.50;98.20;;;;;;2093387;28;19920;-78
2023/07/08 01:09:11;;;;;;;;;;;18.50;98.40;;;;;;2095844;28;19912;-80
2023/07/08 01:10:13;;;;;;;;;;;18.50;98.50;;;;;;2099031;28;20339;-79
2023/07/08 01:11:13;;;;;;;;;;;18.40;98.60;;;;;;2096838;28;19927;-80
2023/07/08 01:12:19;;;;;;;;;;;18.40;98.80;;;;;;2097690;28;19952;-79
2023/07/08 01:13:20;;;;;;;;;;;18.40;98.90;;;;;;2094956;28;20403;-80
2023/07/08 01:14:22;;;;;;;;;;;18.40;99.10;;;;;;2095428;28;19924;-78
2023/07/08 01:15:25;;;;;;;;;;;18.40;99.40;;;;;;2097319;28;19968;-79
2023/07/08 01:16:27;;;;;;;;;;;18.40;99.60;;;;;;2095536;28;19916;-79
2023/07/08 01:17:32;;;;;;;;;;;18.30;99.80;;;;;;2082311;28;20393;-80
2023/07/08 01:18:33;;;;;;;;;;;18.30;99.90;;;;;;2091023;28;20574;-78
2023/07/08 01:19:34;;;;;;;;;;;18.30;99.90;;;;;;2090244;28;19975;-80
2023/07/08 01:20:35;;;;;;;;;;;18.30;99.90;;;;;;2097498;28;20580;-80
2023/07/08 01:21:39;;;;;;;;;;;18.30;99.90;;;;;;2094635;28;20017;-80
2023/07/08 01:22:41;;;;;;;;;;;18.30;99.90;;;;;;2091151;28;20418;-79
2023/07/08 01:23:41;;;;;;;;;;;18.30;99.90;;;;;;2093306;28;20374;-80
2023/07/08 01:24:43;;;;;;;;;;;18.30;99.90;;;;;;2093559;28;19923;-80
2023/07/08 01:25:44;;;;;;;;;;;18.30;99.90;;;;;;2093297;28;19908;-80
2023/07/08 01:26:45;;;;;;;;;;;18.30;99.90;;;;;;2093996;28;20359;-78
2023/07/08 01:27:47;;;;;;;;;;;18.30;99.90;;;;;;2098760;28;19977;-80
2023/07/08 01:28:48;;;;;;;;;;;18.20;99.90;;;;;;2089449;28;19917;-80
2023/07/08 01:29:48;;;;;;;;;;;18.20;99.90;;;;;;2093207;28;20371;-80
2023/07/08 01:30:49;;;;;;;;;;;18.20;99.90;;;;;;2097978;28;20011;-80
2023/07/08 01:31:49;;;;;;;;;;;18.20;99.90;;;;;;2098481;28;19916;-79
2023/07/08 01:32:54;;;;;;;;;;;18.20;99.90;;;;;;2097958;28;19916;-80
2023/07/08 01:33:55;;;;;;;;;;;18.20;99.90;;;;;;2092802;28;19930;-81
2023/07/08 01:35:00;;;;;;;;;;;18.20;99.90;;;;;;2095897;28;19916;-81
2023/07/08 01:36:01;;;;;;;;;;;18.20;99.90;;;;;;2095483;28;20007;-80
2023/07/08 01:37:03;;;;;;;;;;;18.10;99.90;;;;;;2096033;28;19956;-80
2023/07/08 01:38:05;;;;;;;;;;;18.10;99.90;;;;;;2095555;28;19924;-78
2023/07/08 01:39:05;;;;;;;;;;;18.10;99.90;;;;;;2098324;28;20487;-80
2023/07/08 01:40:21;;;;;;;;;;;18.10;99.90;;;;;;2093201;28;19913;-80
2023/07/08 01:41:21;;;;;;;;;;;18.10;99.90;;;;;;2090809;28;19975;-79
2023/07/08 01:42:22;;;;;;;;;;;18.10;99.90;;;;;;2093700;28;20064;-80
2023/07/08 01:43:23;;;;;;;;;;;18.10;99.90;;;;;;2098350;28;19920;-80
2023/07/08 01:44:26;;;;;;;;;;;18.00;99.90;;;;;;2097680;28;20006;-81
2023/07/08 01:45:30;;;;;;;;;;;18.10;99.90;;;;;;2097097;28;19912;-80
2023/07/08 01:46:31;;;;;;;;;;;18.00;99.90;;;;;;2090434;28;19912;-81
2023/07/08 01:47:32;;;;;;;;;;;18.00;99.90;;;;;;2095447;28;19912;-79
2023/07/08 01:48:36;;;;;;;;;;;18.00;99.90;;;;;;2096973;28;19920;-79
2023/07/08 01:49:39;;;;;;;;;;;18.00;99.90;;;;;;2096150;28;19959;-79
2023/07/08 01:50:42;;;;;;;;;;;18.00;99.90;;;;;;2094445;28;19923;-79
2023/07/08 01:51:42;;;;;;;;;;;18.00;99.90;;;;;;2099151;28;19912;-80
2023/07/08 01:52:44;;;;;;;;;;;17.90;99.90;;;;;;2093448;28;20292;-80
2023/07/08 01:53:44;;;;;;;;;;;17.90;99.90;;;;;;2093730;28;19934;-79
2023/07/08 01:54:45;;;;;;;;;;;17.80;99.90;;;;;;2089318;28;19946;-78
2023/07/08 01:55:45;;;;;;;;;;;17.90;99.90;;;;;;2098358;28;19912;-79
2023/07/08 01:56:46;;;;;;;;;;;17.80;99.90;;;;;;2096452;28;19919;-79
2023/07/08 01:57:47;;;;;;;;;;;17.80;99.90;;;;;;2094704;28;19913;-80
2023/07/08 01:58:47;;;;;;;;;;;17.80;99.90;;;;;;2085705;28;19961;-79
2023/07/08 01:59:48;;;;;;;;;;;17.70;99.90;;;;;;2089825;28;20331;-79
2023/07/08 02:00:48;;;;;;;;;;;17.70;99.90;;;;;;2088580;28;20311;-79
2023/07/08 02:01:54;;;;;;;;;;;17.70;99.90;;;;;;2097543;28;19924;-79
2023/07/08 02:02:54;;;;;;;;;;;17.70;99.90;;;;;;2094636;28;19959;-78
2023/07/08 02:03:55;;;;;;;;;;;17.60;99.90;;;;;;2092232;28;19917;-79
2023/07/08 02:04:55;;;;;;;;;;;17.60;99.90;;;;;;2097301;28;20414;-80
2023/07/08 02:05:56;;;;;;;;;;;17.60;99.90;;;;;;2093875;28;19958;-78
2023/07/08 02:06:57;;;;;;;;;;;17.60;99.90;;;;;;2095200;28;19952;-79
2023/07/08 02:07:58;;;;;;;;;;;17.50;99.90;;;;;;2098274;28;19912;-77
2023/07/08 02:08:59;;;;;;;;;;;17.50;99.90;;;;;;2098840;28;19939;-77
2023/07/08 02:10:00;;;;;;;;;;;17.50;99.90;;;;;;2099334;28;19969;-76
2023/07/08 02:11:01;;;;;;;;;;;17.50;99.90;;;;;;2102995;28;19912;-77
2023/07/08 02:12:02;;;;;;;;;;;17.50;99.90;;;;;;2102949;28;19916;-79
2023/07/08 02:13:03;;;;;;;;;;;17.40;99.90;;;;;;2101940;28;19924;-79
2023/07/08 02:14:04;;;;;;;;;;;17.50;99.90;;;;;;2101552;28;20703;-77
2023/07/08 02:15:05;;;;;;;;;;;17.40;99.90;;;;;;2098812;28;19920;-78
2023/07/08 02:16:06;;;;;;;;;;;17.40;99.90;;;;;;2098030;28;20550;-77
2023/07/08 02:17:07;;;;;;;;;;;17.40;99.90;;;;;;2097271;28;19952;-79
2023/07/08 02:18:07;;;;;;;;;;;17.40;99.90;;;;;;2095965;28;19934;-77
2023/07/08 02:19:08;;;;;;;;;;;17.40;99.90;;;;;;2098947;28;19957;-77
2023/07/08 02:20:09;;;;;;;;;;;17.40;99.90;;;;;;2089748;28;19946;-78
2023/07/08 02:21:10;;;;;;;;;;;17.30;99.90;;;;;;2096516;28;20002;-78
2023/07/08 02:22:11;;;;;;;;;;;17.30;99.90;;;;;;2090537;28;20305;-79
2023/07/08 02:23:13;;;;;;;;;;;17.30;99.90;;;;;;2094946;28;19918;-78
2023/07/08 02:24:16;;;;;;;;;;;17.30;99.90;;;;;;2092135;28;19991;-78
2023/07/08 02:25:17;;;;;;;;;;;17.30;99.90;;;;;;2094105;28;19924;-78
2023/07/08 02:26:19;;;;;;;;;;;17.30;99.90;;;;;;2090236;28;20484;-79
2023/07/08 02:27:19;;;;;;;;;;;17.30;99.90;;;;;;2095763;28;19917;-78
2023/07/08 02:28:20;;;;;;;;;;;17.30;99.90;;;;;;2095142;28;20314;-78
2023/07/08 02:29:20;;;;;;;;;;;17.20;99.90;;;;;;2096184;28;20510;-79
2023/07/08 02:30:21;;;;;;;;;;;17.30;99.90;;;;;;2096640;28;19983;-78
2023/07/08 02:31:24;;;;;;;;;;;17.30;99.90;;;;;;2087380;28;19937;-78
2023/07/08 02:32:25;;;;;;;;;;;17.20;99.90;;;;;;2095388;28;19912;-80
2023/07/08 02:33:32;;;;;;;;;;;17.20;99.90;;;;;;2104831;28;19916;-77
2023/07/08 02:34:33;;;;;;;;;;;17.20;99.90;;;;;;2094069;28;19916;-79
2023/07/08 02:35:33;;;;;;;;;;;17.20;99.90;;;;;;2093600;28;19947;-79
2023/07/08 02:36:34;;;;;;;;;;;17.20;99.90;;;;;;2092200;28;19916;-79
2023/07/08 02:37:35;;;;;;;;;;;17.20;99.90;;;;;;2096518;28;19912;-79
2023/07/08 02:38:35;;;;;;;;;;;17.20;99.90;;;;;;2095691;28;19924;-79
2023/07/08 02:39:36;;;;;;;;;;;17.10;99.90;;;;;;2095933;28;20087;-79
2023/07/08 02:40:36;;;;;;;;;;;17.10;99.90;;;;;;2097768;28;20016;-79
2023/07/08 02:41:37;;;;;;;;;;;17.10;99.90;;;;;;2093474;28;20355;-79
2023/07/08 02:42:38;;;;;;;;;;;17.10;99.90;;;;;;2095768;28;20545;-78
2023/07/08 02:43:39;;;;;;;;;;;17.10;99.90;;;;;;2094899;28;20400;-79
2023/07/08 02:44:40;;;;;;;;;;;17.10;99.90;;;;;;2088987;28;19951;-78
2023/07/08 02:45:40;;;;;;;;;;;17.10;99.90;;;;;;2087989;28;19917;-77
2023/07/08 02:46:42;;;;;;;;;;;17.10;99.90;;;;;;2094711;28;19918;-80
2023/07/08 02:47:43;;;;;;;;;;;17.10;99.90;;;;;;2088090;28;19919;-78
2023/07/08 02:48:43;;;;;;;;;;;17.10;99.90;;;;;;2093309;28;19912;-79
2023/07/08 02:49:45;;;;;;;;;;;17.00;99.90;;;;;;2094250;28;19912;-79
2023/07/08 02:50:46;;;;;;;;;;;17.10;99.90;;;;;;2095588;28;19916;-79
2023/07/08 02:51:46;;;;;;;;;;;17.00;99.90;;;;;;2092979;28;19916;-78
2023/07/08 02:52:47;;;;;;;;;;;17.00;99.90;;;;;;2092324;28;19913;-79
2023/07/08 02:53:49;;;;;;;;;;;17.00;99.90;;;;;;2089306;28;19920;-79
2023/07/08 02:54:49;;;;;;;;;;;17.00;99.90;;;;;;2096864;28;20011;-77
2023/07/08 02:55:50;;;;;;;;;;;17.00;99.90;;;;;;2093227;28;19917;-79
2023/07/08 02:56:50;;;;;;;;;;;17.00;99.90;;;;;;2095999;28;19912;-79
2023/07/08 02:57:51;;;;;;;;;;;17.00;99.90;;;;;;2098219;28;20001;-79
2023/07/08 02:58:52;;;;;;;;;;;16.90;99.90;;;;;;2097030;28;19918;-78
2023/07/08 02:59:52;;;;;;;;;;;16.90;99.90;;;;;;2086331;28;19917;-79
2023/07/08 03:00:53;;;;;;;;;;;16.90;99.90;;;;;;2091858;28;19923;-78
2023/07/08 03:01:54;;;;;;;;;;;16.90;99.90;;;;;;2085413;28;19923;-78
2023/07/08 03:02:54;;;;;;;;;;;16.90;99.90;;;;;;2096263;28;20138;-77
2023/07/08 03:03:58;;;;;;;;;;;16.90;99.90;;;;;;2096158;28;19922;-77
2023/07/08 03:05:00;;;;;;;;;;;16.90;99.90;;;;;;2089872;28;20014;-78
2023/07/08 03:06:02;;;;;;;;;;;16.90;99.90;;;;;;2091503;28;19977;-78
2023/07/08 03:07:03;;;;;;;;;;;16.90;99.90;;;;;;2083783;28;20373;-77
2023/07/08 03:08:04;;;;;;;;;;;16.90;99.90;;;;;;2098271;28;19921;-80
2023/07/08 03:09:04;;;;;;;;;;;16.90;99.90;;;;;;2086919;28;19970;-80
2023/07/08 03:10:06;;;;;;;;;;;16.90;99.90;;;;;;2091607;28;20474;-79
2023/07/08 03:11:07;;;;;;;;;;;16.90;99.90;;;;;;2097696;28;20444;-78
2023/07/08 03:12:09;;;;;;;;;;;16.90;99.90;;;;;;2093447;28;19912;-79
2023/07/08 03:13:09;;;;;;;;;;;16.90;99.90;;;;;;2094801;28;20469;-78
2023/07/08 03:14:11;;;;;;;;;;;16.90;99.90;;;;;;2093260;28;20410;-80
2023/07/08 03:15:11;;;;;;;;;;;16.90;99.90;;;;;;2091682;28;19916;-79
2023/07/08 03:16:14;;;;;;;;;;;16.90;99.90;;;;;;2093254;28;20003;-79
2023/07/08 03:17:17;;;;;;;;;;;16.90;99.90;;;;;;2081485;28;19927;-79
2023/07/08 03:18:18;;;;;;;;;;;16.90;99.90;;;;;;2091880;28;19956;-80
2023/07/08 03:19:19;;;;;;;;;;;16.90;99.90;;;;;;2093023;28;19920;-79
2023/07/08 03:20:21;;;;;;;;;;;16.90;99.90;;;;;;2095850;28;19916;-81
2023/07/08 03:21:21;;;;;;;;;;;16.90;99.90;;;;;;2093631;28;20451;-79
2023/07/08 03:22:21;;;;;;;;;;;16.90;99.90;;;;;;2092790;28;19916;-79
2023/07/08 03:23:23;;;;;;;;;;;17.00;99.90;;;;;;2091953;28;20918;-79
2023/07/08 03:24:25;;;;;;;;;;;17.00;99.90;;;;;;2091753;28;19990;-79
2023/07/08 03:25:26;;;;;;;;;;;16.90;99.90;;;;;;2094316;28;20010;-79
2023/07/08 03:26:27;;;;;;;;;;;17.00;99.90;;;;;;2096561;28;19935;-79
2023/07/08 03:27:29;;;;;;;;;;;17.00;99.90;;;;;;2094836;28;19917;-79
2023/07/08 03:28:29;;;;;;;;;;;17.00;99.90;;;;;;2089574;28;19974;-81
2023/07/08 03:29:30;;;;;;;;;;;17.00;99.90;;;;;;2079264;28;19913;-78
2023/07/08 03:30:32;;;;;;;;;;;17.00;99.90;;;;;;2085211;28;20494;-79
2023/07/08 03:31:32;;;;;;;;;;;17.00;99.90;;;;;;2090732;28;19954;-78
2023/07/08 03:32:33;;;;;;;;;;;17.00;99.90;;;;;;2093010;28;19916;-78
2023/07/08 03:33:33;;;;;;;;;;;17.00;99.90;;;;;;2093268;28;19921;-81
2023/07/08 03:34:34;;;;;;;;;;;17.00;99.90;;;;;;2093600;28;19926;-81
2023/07/08 03:35:35;;;;;;;;;;;17.00;99.90;;;;;;2093793;28;20401;-78
2023/07/08 03:36:36;;;;;;;;;;;17.00;99.90;;;;;;2095292;28;19944;-81
2023/07/08 03:37:36;;;;;;;;;;;17.00;99.90;;;;;;2093579;28;19927;-80
2023/07/08 03:38:38;;;;;;;;;;;17.00;99.90;;;;;;2086076;28;19960;-79
2023/07/08 03:39:38;;;;;;;;;;;17.00;99.90;;;;;;2093819;28;19917;-77
2023/07/08 03:40:39;;;;;;;;;;;17.00;99.90;;;;;;2097759;28;20805;-80
2023/07/08 03:41:39;;;;;;;;;;;17.00;99.90;;;;;;2086697;28;20647;-80
2023/07/08 03:42:40;;;;;;;;;;;17.00;99.90;;;;;;2094508;28;19959;-80
2023/07/08 03:43:40;;;;;;;;;;;17.10;99.90;;;;;;2096071;28;19969;-80
2023/07/08 03:44:41;;;;;;;;;;;17.10;99.90;;;;;;2099141;28;19988;-80
2023/07/08 03:45:41;;;;;;;;;;;17.10;99.90;;;;;;2095614;28;19912;-80
2023/07/08 03:46:47;;;;;;;;;;;17.10;99.90;;;;;;2093061;28;19916;-78
2023/07/08 03:47:50;;;;;;;;;;;17.10;99.90;;;;;;2088651;28;19916;-80
2023/07/08 03:48:51;;;;;;;;;;;17.20;99.90;;;;;;2091140;28;19913;-79
2023/07/08 03:49:51;;;;;;;;;;;17.20;99.90;;;;;;2091611;28;19912;-79
2023/07/08 03:50:52;;;;;;;;;;;17.20;99.90;;;;;;2095105;28;19913;-80
2023/07/08 03:51:53;;;;;;;;;;;17.20;99.90;;;;;;2090416;28;19938;-79
2023/07/08 03:52:54;;;;;;;;;;;17.20;99.90;;;;;;2093553;28;19950;-80
2023/07/08 03:53:57;;;;;;;;;;;17.20;99.90;;;;;;2092783;28;20379;-79
2023/07/08 03:54:58;;;;;;;;;;;17.20;99.90;;;;;;2087823;28;20546;-79
2023/07/08 03:55:59;;;;;;;;;;;17.30;99.90;;;;;;2104036;28;20006;-80
2023/07/08 03:57:00;;;;;;;;;;;17.30;99.90;;;;;;2100236;28;20378;-79
2023/07/08 03:58:01;;;;;;;;;;;17.30;99.90;;;;;;2093441;28;19920;-79
2023/07/08 03:59:05;;;;;;;;;;;17.30;99.90;;;;;;2093126;28;19913;-79
2023/07/08 04:00:09;;;;;;;;;;;17.40;99.90;;;;;;2093580;28;20636;-79
2023/07/08 04:01:18;;;;;;;;;;;17.40;99.90;;;;;;2096522;28;19916;-80
2023/07/08 04:02:18;;;;;;;;;;;17.40;99.90;;;;;;2097172;28;20015;-79
2023/07/08 04:03:19;;;;;;;;;;;17.40;99.90;;;;;;2099562;28;19917;-79
2023/07/08 04:04:19;;;;;;;;;;;17.50;99.90;;;;;;2094567;28;19974;-79
2023/07/08 04:05:21;;;;;;;;;;;17.50;99.90;;;;;;2096484;28;19920;-79
2023/07/08 04:06:22;;;;;;;;;;;17.50;99.90;;;;;;2097528;28;19912;-79
2023/07/08 04:07:22;;;;;;;;;;;17.60;99.90;;;;;;2099694;28;20393;-79
2023/07/08 04:08:23;;;;;;;;;;;17.60;99.90;;;;;;2094233;28;20500;-79
2023/07/08 04:09:23;;;;;;;;;;;17.60;99.90;;;;;;2090130;28;19977;-79
2023/07/08 04:10:24;;;;;;;;;;;17.70;99.90;;;;;;2096140;28;19916;-80
2023/07/08 04:11:24;;;;;;;;;;;17.70;99.90;;;;;;2091969;28;20343;-79
2023/07/08 04:12:25;;;;;;;;;;;17.90;99.90;;;;;;2091486;28;19924;-78
2023/07/08 04:13:25;;;;;;;;;;;18.10;99.90;;;;;;2093956;28;19970;-79
2023/07/08 04:14:26;;;;;;;;;;;18.40;99.90;;;;;;2089882;28;20287;-79
2023/07/08 04:15:28;;;;;;;;;;;18.80;99.90;;;;;;2097542;28;19916;-80
2023/07/08 04:16:31;;;;;;;;;;;19.20;99.90;;;;;;2099704;28;20007;-79
2023/07/08 04:17:32;;;;;;;;;;;19.60;99.90;;;;;;2099226;28;19919;-78
2023/07/08 04:18:32;;;;;;;;;;;20.10;99.90;;;;;;2102308;28;19947;-78
2023/07/08 04:19:33;;;;;;;;;;;20.50;99.90;;;;;;2107058;28;19912;-79
2023/07/08 04:20:33;;;;;;;;;;;21.00;99.90;;;;;;2101790;28;19915;-80
2023/07/08 04:21:33;;;;;;;;;;;21.30;99.90;;;;;;2101946;28;19944;-79
2023/07/08 04:22:34;;;;;;;;;;;21.70;99.90;;;;;;2102875;28;19917;-80
2023/07/08 04:23:34;;;;;;;;;;;22.00;99.90;;;;;;2098605;28;19923;-79
2023/07/08 04:24:35;;;;;;;;;;;22.20;99.50;;;;;;2098882;28;19942;-79
2023/07/08 04:25:35;;;;;;;;;;;22.50;98.40;;;;;;2098521;28;19912;-79
2023/07/08 04:26:36;;;;;;;;;;;22.70;97.40;;;;;;2098245;28;19924;-79
2023/07/08 04:27:37;;;;;;;;;;;22.90;96.40;;;;;;2100268;28;20357;-80
2023/07/08 04:28:37;;;;;;;;;;;23.10;95.60;;;;;;2098649;28;19924;-79
2023/07/08 04:29:38;;;;;;;;;;;23.30;94.80;;;;;;2103159;28;20487;-80
2023/07/08 04:30:41;;;;;;;;;;;23.40;94.00;;;;;;2101853;28;20309;-81
2023/07/08 04:31:41;;;;;;;;;;;23.60;93.10;;;;;;2099691;28;19927;-79
2023/07/08 04:32:41;;;;;;;;;;;23.80;92.50;;;;;;2096431;28;20479;-80
2023/07/08 04:33:42;;;;;;;;;;;23.90;91.90;;;;;;2096226;28;20307;-79
2023/07/08 04:34:42;;;;;;;;;;;24.10;91.30;;;;;;2097186;28;19916;-79
2023/07/08 04:35:43;;;;;;;;;;;24.20;90.60;;;;;;2095788;28;19923;-80
2023/07/08 04:36:44;;;;;;;;;;;24.30;90.10;;;;;;2099954;28;19916;-81
2023/07/08 04:37:47;;;;;;;;;;;24.50;89.10;;;;;;2093029;28;19916;-80
2023/07/08 04:38:47;;;;;;;;;;;24.60;87.80;;;;;;2097291;28;19915;-78
2023/07/08 04:39:48;;;;;;;;;;;24.70;86.90;;;;;;2092631;28;19916;-80
2023/07/08 04:40:50;;;;;;;;;;;24.90;85.90;;;;;;2098284;28;20357;-80
2023/07/08 04:41:51;;;;;;;;;;;24.90;84.40;;;;;;2094535;28;20427;-79
2023/07/08 04:42:52;;;;;;;;;;;25.10;83.80;;;;;;2094508;28;19912;-79
2023/07/08 04:43:53;;;;;;;;;;;25.20;83.00;;;;;;2098239;28;19944;-78
2023/07/08 04:44:54;;;;;;;;;;;25.30;82.20;;;;;;2098374;28;20381;-79
2023/07/08 04:45:55;;;;;;;;;;;25.50;81.40;;;;;;2099367;28;19916;-79
2023/07/08 04:46:56;;;;;;;;;;;25.60;80.60;;;;;;2100567;28;20007;-79
2023/07/08 04:47:56;;;;;;;;;;;25.70;79.40;;;;;;2096871;28;19982;-78
2023/07/08 04:49:00;;;;;;;;;;;25.70;78.90;;;;;;2096728;28;20358;-78
2023/07/08 04:50:00;;;;;;;;;;;25.80;78.50;;;;;;2098484;28;19988;-79
2023/07/08 04:51:01;;;;;;;;;;;25.90;77.70;;;;;;2093179;28;19916;-80
2023/07/08 04:52:01;;;;;;;;;;;26.00;76.50;;;;;;2098262;28;20383;-81
2023/07/08 04:53:02;;;;;;;;;;;26.10;75.40;;;;;;2098018;28;19916;-78
2023/07/08 04:54:03;;;;;;;;;;;26.00;74.80;;;;;;2099015;28;19935;-79
2023/07/08 04:55:03;;;;;;;;;;;26.10;74.00;;;;;;2096361;28;19916;-78
2023/07/08 04:56:04;;;;;;;;;;;26.00;73.30;;;;;;2096817;28;19927;-79
2023/07/08 04:57:04;;;;;;;;;;;26.00;72.90;;;;;;2097082;28;20365;-78
2023/07/08 04:58:05;;;;;;;;;;;26.10;73.20;;;;;;2100602;28;19920;-80
2023/07/08 04:59:07;;;;;;;;;;;26.20;73.60;;;;;;2098035;28;20753;-78
2023/07/08 05:00:12;;;;;;;;;;;26.40;73.40;;;;;;2092877;28;19921;-78
2023/07/08 05:01:13;;;;;;;;;;;26.50;73.10;;;;;;2097560;28;20452;-80
2023/07/08 05:02:14;;;;;;;;;;;26.60;70.60;;;;;;2098112;28;19916;-79
2023/07/08 05:03:14;;;;;;;;;;;26.70;70.80;;;;;;2100002;28;20271;-80
2023/07/08 05:04:16;;;;;;;;;;;26.80;70.60;;;;;;2097009;28;19920;-78
2023/07/08 05:05:17;;;;;;;;;;;26.80;70.70;;;;;;2097525;28;20066;-79
2023/07/08 05:06:17;;;;;;;;;;;26.80;69.60;;;;;;2096303;28;19962;-79
2023/07/08 05:07:18;;;;;;;;;;;26.80;69.40;;;;;;2095085;28;19912;-78
2023/07/08 05:08:18;;;;;;;;;;;26.80;69.30;;;;;;2097826;28;20294;-79
2023/07/08 05:09:18;;;;;;;;;;;26.80;68.70;;;;;;2091329;28;19916;-80
2023/07/08 05:10:20;;;;;;;;;;;26.90;68.40;;;;;;2097681;28;19912;-80
2023/07/08 05:11:20;;;;;;;;;;;27.00;68.00;;;;;;2098564;28;19934;-78
2023/07/08 05:12:21;;;;;;;;;;;27.20;67.60;;;;;;2096524;28;19948;-80
2023/07/08 05:13:22;;;;;;;;;;;27.20;67.30;;;;;;2096561;28;20048;-79
2023/07/08 05:14:22;;;;;;;;;;;27.40;66.90;;;;;;2096986;28;19956;-80
2023/07/08 05:15:22;;;;;;;;;;;27.50;66.50;;;;;;2096896;28;19944;-80
2023/07/08 05:16:23;;;;;;;;;;;27.50;66.20;;;;;;2099143;28;19921;-79
2023/07/08 05:17:25;;;;;;;;;;;27.60;65.90;;;;;;2099795;28;19916;-78
2023/07/08 05:18:25;;;;;;;;;;;27.70;65.70;;;;;;2097252;28;20407;-81
2023/07/08 05:19:25;;;;;;;;;;;27.60;64.90;;;;;;2094002;28;19924;-77
2023/07/08 05:20:26;;;;;;;;;;;27.60;64.80;;;;;;2093470;28;20459;-80
2023/07/08 05:21:29;;;;;;;;;;;27.70;64.80;;;;;;2098697;28;19916;-79
2023/07/08 05:22:29;;;;;;;;;;;27.80;64.40;;;;;;2096367;28;19981;-78
2023/07/08 05:23:30;;;;;;;;;;;27.70;64.20;;;;;;2097241;28;19913;-79
2023/07/08 05:24:30;;;;;;;;;;;27.70;64.50;;;;;;2095120;28;19916;-78
2023/07/08 05:25:32;;;;;;;;;;;27.70;64.20;;;;;;2098810;28;19990;-78
2023/07/08 05:26:32;;;;;;;;;;;27.70;63.60;;;;;;2097483;28;20271;-78
2023/07/08 05:27:33;;;;;;;;;;;27.80;63.80;;;;;;2097747;28;22927;-79
2023/07/08 05:28:34;;;;;;;;;;;27.80;64.10;;;;;;2097815;28;19923;-79
2023/07/08 05:29:34;;;;;;;;;;;27.90;63.50;;;;;;2098088;28;19930;-77
2023/07/08 05:30:35;;;;;;;;;;;28.00;63.20;;;;;;2098363;28;19912;-80
2023/07/08 05:31:35;;;;;;;;;;;28.00;62.90;;;;;;2096960;28;19912;-79
2023/07/08 05:32:36;;;;;;;;;;;28.20;62.90;;;;;;2096527;28;19916;-80
2023/07/08 05:33:36;;;;;;;;;;;28.20;61.80;;;;;;2097193;28;20332;-81
2023/07/08 05:34:37;;;;;;;;;;;28.00;62.20;;;;;;2099571;28;19916;-78
2023/07/08 05:35:37;;;;;;;;;;;28.10;62.40;;;;;;2093295;28;19912;-81
2023/07/08 05:36:38;;;;;;;;;;;28.20;61.40;;;;;;2093248;28;20035;-78
2023/07/08 05:37:39;;;;;;;;;;;28.10;62.30;;;;;;2097676;28;19924;-81
2023/07/08 05:38:40;;;;;;;;;;;28.20;61.70;;;;;;2097751;28;19916;-79
2023/07/08 05:39:40;;;;;;;;;;;28.20;62.20;;;;;;2095847;28;20015;-79
2023/07/08 05:40:41;;;;;;;;;;;28.20;61.70;;;;;;2099031;28;19923;-78
2023/07/08 05:41:41;;;;;;;;;;;28.20;60.80;;;;;;2099364;28;20023;-78
2023/07/08 05:42:42;;;;;;;;;;;28.10;60.90;;;;;;2099627;28;19978;-79
2023/07/08 05:43:42;;;;;;;;;;;28.00;61.60;;;;;;2097356;28;19916;-80
2023/07/08 05:44:43;;;;;;;;;;;27.80;62.60;;;;;;2097681;28;19920;-78
2023/07/08 05:45:43;;;;;;;;;;;27.90;61.20;;;;;;2097529;28;19942;-81
2023/07/08 05:46:44;;;;;;;;;;;27.90;61.50;;;;;;2099545;28;20074;-79
2023/07/08 05:47:44;;;;;;;;;;;27.90;60.50;;;;;;2096265;28;19959;-79
2023/07/08 05:48:45;;;;;;;;;;;28.00;60.80;;;;;;2097347;28;20346;-79
2023/07/08 05:49:45;;;;;;;;;;;28.00;61.00;;;;;;2097620;28;20456;-80
2023/07/08 05:50:46;;;;;;;;;;;28.00;61.00;;;;;;2094170;28;19955;-79
2023/07/08 05:51:47;;;;;;;;;;;28.10;60.40;;;;;;2098597;28;19912;-80
2023/07/08 05:52:47;;;;;;;;;;;27.90;60.80;;;;;;2097841;28;19916;-80
2023/07/08 05:53:47;;;;;;;;;;;28.00;60.00;;;;;;2097676;28;19912;-80
2023/07/08 05:54:48;;;;;;;;;;;28.00;59.80;;;;;;2097657;28;19916;-81
2023/07/08 05:55:48;;;;;;;;;;;28.00;59.70;;;;;;2098136;28;19923;-80
2023/07/08 05:56:49;;;;;;;;;;;28.20;59.60;;;;;;2096482;28;20226;-80